sensor_id;sensor_type;location;lat;lon;timestamp;P1;P4;P2;P0;N10;N4;N25;N1;N05;TS
67098;SPS30;54288;53.046;5.668;2024-02-04T00:02:20;2.60;2.52;2.10;1.50;12.08;12.06;11.95;11.40;9.35;0.76
67098;SPS30;54288;53.046;5.668;2024-02-04T00:04:48;2.48;2.40;1.97;1.37;10.99;10.98;10.87;10.31;8.37;0.76
67098;SPS30;54288;53.046;5.668;2024-02-04T00:07:13;2.70;2.61;2.15;1.50;12.10;12.09;11.97;11.37;9.26;0.75
67098;SPS30;54288;53.046;5.668;2024-02-04T00:09:39;2.40;2.32;1.92;1.35;10.88;10.86;10.76;10.24;8.36;0.75
67098;SPS30;54288;53.046;5.668;2024-02-04T00:12:05;2.90;2.80;2.31;1.61;12.99;12.97;12.84;12.19;9.93;0.76
67098;SPS30;54288;53.046;5.668;2024-02-04T00:14:31;2.49;2.41;2.00;1.41;11.34;11.33;11.22;10.68;8.73;0.76
67098;SPS30;54288;53.046;5.668;2024-02-04T00:16:57;2.86;2.76;2.26;1.56;12.52;12.50;12.37;11.72;9.50;0.79
67098;SPS30;54288;53.046;5.668;2024-02-04T00:19:24;2.66;2.57;2.10;1.43;11.52;11.50;11.38;10.76;8.70;0.79
67098;SPS30;54288;53.046;5.668;2024-02-04T00:21:49;2.66;2.57;2.09;1.41;11.38;11.36;11.23;10.61;8.55;0.79
67098;SPS30;54288;53.046;5.668;2024-02-04T00:24:15;2.82;2.72;2.21;1.50;12.11;12.09;11.96;11.30;9.13;0.78
67098;SPS30;54288;53.046;5.668;2024-02-04T00:26:41;2.98;2.87;2.32;1.55;12.47;12.45;12.31;11.59;9.31;0.78
67098;SPS30;54288;53.046;5.668;2024-02-04T00:29:07;2.84;2.74;2.20;1.46;11.78;11.76;11.62;10.92;8.75;0.78
67098;SPS30;54288;53.046;5.668;2024-02-04T00:31:32;2.92;2.81;2.23;1.43;11.57;11.55;11.40;10.65;8.43;0.79
67098;SPS30;54288;53.046;5.668;2024-02-04T00:33:58;3.22;3.10;2.47;1.60;12.92;12.90;12.74;11.92;9.47;0.79
67098;SPS30;54288;53.046;5.668;2024-02-04T00:36:24;3.05;2.93;2.36;1.57;12.64;12.62;12.47;11.73;9.40;0.78
67098;SPS30;54288;53.046;5.668;2024-02-04T00:38:49;3.07;2.96;2.40;1.62;13.02;12.99;12.85;12.12;9.75;0.75
67098;SPS30;54288;53.046;5.668;2024-02-04T00:41:15;2.95;2.85;2.31;1.56;12.60;12.58;12.44;11.74;9.47;0.75
67098;SPS30;54288;53.046;5.668;2024-02-04T00:43:41;2.89;2.78;2.25;1.51;12.18;12.16;12.03;11.34;9.12;0.74
67098;SPS30;54288;53.046;5.668;2024-02-04T00:46:07;3.21;3.08;2.45;1.58;12.72;12.70;12.54;11.72;9.28;0.76
67098;SPS30;54288;53.046;5.668;2024-02-04T00:48:36;3.05;2.93;2.32;1.48;11.98;11.96;11.80;11.01;8.71;0.77
67098;SPS30;54288;53.046;5.668;2024-02-04T00:51:02;2.74;2.63;2.10;1.36;10.95;10.93;10.79;10.10;8.02;0.77
67098;SPS30;54288;53.046;5.668;2024-02-04T00:53:28;2.85;2.75;2.21;1.46;11.76;11.74;11.60;10.90;8.72;0.78
67098;SPS30;54288;53.046;5.668;2024-02-04T00:56:03;2.72;2.62;2.14;1.47;11.82;11.81;11.68;11.05;8.95;0.74
67098;SPS30;54288;53.046;5.668;2024-02-04T00:58:29;2.96;2.87;2.40;1.72;13.81;13.79;13.67;13.05;10.71;0.71
67098;SPS30;54288;53.046;5.668;2024-02-04T01:00:55;2.76;2.68;2.27;1.68;13.46;13.44;13.34;12.80;10.59;0.70
67098;SPS30;54288;53.046;5.668;2024-02-04T01:03:21;2.29;2.23;1.91;1.44;11.57;11.56;11.48;11.06;9.21;0.69
67098;SPS30;54288;53.046;5.668;2024-02-04T01:05:47;2.49;2.42;2.08;1.57;12.59;12.58;12.49;12.03;10.02;0.70
67098;SPS30;54288;53.046;5.668;2024-02-04T01:08:13;2.90;2.82;2.38;1.73;13.94;13.92;13.80;13.22;10.91;0.72
67098;SPS30;54288;53.046;5.668;2024-02-04T01:10:38;3.16;3.06;2.57;1.85;14.89;14.87;14.74;14.09;11.59;0.73
67098;SPS30;54288;53.046;5.668;2024-02-04T01:13:04;2.67;2.59;2.17;1.56;12.55;12.53;12.42;11.87;9.75;0.63
67098;SPS30;54288;53.046;5.668;2024-02-04T01:15:30;0.00;0.00;0.00;0.00;0.00;0.00;0.00;0.00;0.00;0.00
67098;SPS30;54288;53.046;5.668;2024-02-04T01:17:56;0.00;0.00;0.00;0.00;0.00;0.00;0.00;0.00;0.00;0.00
67098;SPS30;54288;53.046;5.668;2024-02-04T01:20:22;0.00;0.00;0.00;0.00;0.00;0.00;0.00;0.00;0.00;0.00
67098;SPS30;54288;53.046;5.668;2024-02-04T08:01:00;0.00;0.00;0.00;0.00;0.00;0.00;0.00;0.00;0.00;0.00
67098;SPS30;54288;53.046;5.668;2024-02-04T08:48:46;0.00;0.00;0.00;0.00;0.00;0.00;0.00;0.00;0.00;0.00
67098;SPS30;54288;53.046;5.668;2024-02-04T08:51:14;0.00;0.00;0.00;0.00;0.00;0.00;0.00;0.00;0.00;0.00
67098;SPS30;54288;53.046;5.668;2024-02-04T08:56:44;0.00;0.00;0.00;0.00;0.00;0.00;0.00;0.00;0.00;0.00
67098;SPS30;54288;53.046;5.668;2024-02-04T08:59:10;0.00;0.00;0.00;0.00;0.00;0.00;0.00;0.00;0.00;0.00
67098;SPS30;54288;53.046;5.668;2024-02-04T09:04:32;0.00;0.00;0.00;0.00;0.00;0.00;0.00;0.00;0.00;0.00
67098;SPS30;54288;53.046;5.668;2024-02-04T09:10:15;0.00;0.00;0.00;0.00;0.00;0.00;0.00;0.00;0.00;0.00
67098;SPS30;54288;53.046;5.668;2024-02-04T09:12:42;0.00;0.00;0.00;0.00;0.00;0.00;0.00;0.00;0.00;0.00
67098;SPS30;54288;53.046;5.668;2024-02-04T09:15:07;0.00;0.00;0.00;0.00;0.00;0.00;0.00;0.00;0.00;0.00
67098;SPS30;54288;53.046;5.668;2024-02-04T09:17:33;0.00;0.00;0.00;0.00;0.00;0.00;0.00;0.00;0.00;0.00
67098;SPS30;54288;53.046;5.668;2024-02-04T09:20:00;0.00;0.00;0.00;0.00;0.00;0.00;0.00;0.00;0.00;0.00
67098;SPS30;54288;53.046;5.668;2024-02-04T09:22:26;0.00;0.00;0.00;0.00;0.00;0.00;0.00;0.00;0.00;0.00
67098;SPS30;54288;53.046;5.668;2024-02-04T09:27:52;0.00;0.00;0.00;0.00;0.00;0.00;0.00;0.00;0.00;0.00
67098;SPS30;54288;53.046;5.668;2024-02-04T09:30:18;0.00;0.00;0.00;0.00;0.00;0.00;0.00;0.00;0.00;0.00
67098;SPS30;54288;53.046;5.668;2024-02-04T09:32:44;0.00;0.00;0.00;0.00;0.00;0.00;0.00;0.00;0.00;0.00
67098;SPS30;54288;53.046;5.668;2024-02-04T09:35:10;0.00;0.00;0.00;0.00;0.00;0.00;0.00;0.00;0.00;0.00
67098;SPS30;54288;53.046;5.668;2024-02-04T09:37:36;0.00;0.00;0.00;0.00;0.00;0.00;0.00;0.00;0.00;0.00
67098;SPS30;54288;53.046;5.668;2024-02-04T09:40:01;0.00;0.00;0.00;0.00;0.00;0.00;0.00;0.00;0.00;0.00
67098;SPS30;54288;53.046;5.668;2024-02-04T09:51:15;0.00;0.00;0.00;0.00;0.00;0.00;0.00;0.00;0.00;0.00
67098;SPS30;54288;53.046;5.668;2024-02-04T09:53:44;0.00;0.00;0.00;0.00;0.00;0.00;0.00;0.00;0.00;0.00
67098;SPS30;54288;53.046;5.668;2024-02-04T09:56:12;0.00;0.00;0.00;0.00;0.00;0.00;0.00;0.00;0.00;0.00
67098;SPS30;54288;53.046;5.668;2024-02-04T09:58:39;0.00;0.00;0.00;0.00;0.00;0.00;0.00;0.00;0.00;0.00
67098;SPS30;54288;53.046;5.668;2024-02-04T10:01:05;0.00;0.00;0.00;0.00;0.00;0.00;0.00;0.00;0.00;0.00
67098;SPS30;54288;53.046;5.668;2024-02-04T10:03:33;0.00;0.00;0.00;0.00;0.00;0.00;0.00;0.00;0.00;0.00
67098;SPS30;54288;53.046;5.668;2024-02-04T10:05:59;0.00;0.00;0.00;0.00;0.00;0.00;0.00;0.00;0.00;0.00
67098;SPS30;54288;53.046;5.668;2024-02-04T10:08:25;0.00;0.00;0.00;0.00;0.00;0.00;0.00;0.00;0.00;0.00
67098;SPS30;54288;53.046;5.668;2024-02-04T10:10:51;0.00;0.00;0.00;0.00;0.00;0.00;0.00;0.00;0.00;0.00
67098;SPS30;54288;53.046;5.668;2024-02-04T10:13:18;0.00;0.00;0.00;0.00;0.00;0.00;0.00;0.00;0.00;0.00
67098;SPS30;54288;53.046;5.668;2024-02-04T10:15:44;0.00;0.00;0.00;0.00;0.00;0.00;0.00;0.00;0.00;0.00
67098;SPS30;54288;53.046;5.668;2024-02-04T10:18:09;0.00;0.00;0.00;0.00;0.00;0.00;0.00;0.00;0.00;0.00
67098;SPS30;54288;53.046;5.668;2024-02-04T10:20:35;0.00;0.00;0.00;0.00;0.00;0.00;0.00;0.00;0.00;0.00
67098;SPS30;54288;53.046;5.668;2024-02-04T10:23:01;0.00;0.00;0.00;0.00;0.00;0.00;0.00;0.00;0.00;0.00
67098;SPS30;54288;53.046;5.668;2024-02-04T10:25:27;0.00;0.00;0.00;0.00;0.00;0.00;0.00;0.00;0.00;0.00
67098;SPS30;54288;53.046;5.668;2024-02-04T10:27:53;0.00;0.00;0.00;0.00;0.00;0.00;0.00;0.00;0.00;0.00
67098;SPS30;54288;53.046;5.668;2024-02-04T10:30:19;0.00;0.00;0.00;0.00;0.00;0.00;0.00;0.00;0.00;0.00
67098;SPS30;54288;53.046;5.668;2024-02-04T10:32:47;0.00;0.00;0.00;0.00;0.00;0.00;0.00;0.00;0.00;0.00
67098;SPS30;54288;53.046;5.668;2024-02-04T10:35:15;0.00;0.00;0.00;0.00;0.00;0.00;0.00;0.00;0.00;0.00
67098;SPS30;54288;53.046;5.668;2024-02-04T10:37:44;0.00;0.00;0.00;0.00;0.00;0.00;0.00;0.00;0.00;0.00
67098;SPS30;54288;53.046;5.668;2024-02-04T10:40:11;0.00;0.00;0.00;0.00;0.00;0.00;0.00;0.00;0.00;0.00
67098;SPS30;54288;53.046;5.668;2024-02-04T10:42:37;0.00;0.00;0.00;0.00;0.00;0.00;0.00;0.00;0.00;0.00
67098;SPS30;54288;53.046;5.668;2024-02-04T10:45:04;0.00;0.00;0.00;0.00;0.00;0.00;0.00;0.00;0.00;0.00
67098;SPS30;54288;53.046;5.668;2024-02-04T10:47:37;0.00;0.00;0.00;0.00;0.00;0.00;0.00;0.00;0.00;0.00
67098;SPS30;54288;53.046;5.668;2024-02-04T10:50:04;0.00;0.00;0.00;0.00;0.00;0.00;0.00;0.00;0.00;0.00
67098;SPS30;54288;53.046;5.668;2024-02-04T10:52:33;0.00;0.00;0.00;0.00;0.00;0.00;0.00;0.00;0.00;0.00
67098;SPS30;54288;53.046;5.668;2024-02-04T10:55:07;0.00;0.00;0.00;0.00;0.00;0.00;0.00;0.00;0.00;0.00
67098;SPS30;54288;53.046;5.668;2024-02-04T10:57:35;0.00;0.00;0.00;0.00;0.00;0.00;0.00;0.00;0.00;0.00
67098;SPS30;54288;53.046;5.668;2024-02-04T11:00:03;0.00;0.00;0.00;0.00;0.00;0.00;0.00;0.00;0.00;0.00
67098;SPS30;54288;53.046;5.668;2024-02-04T11:02:34;0.00;0.00;0.00;0.00;0.00;0.00;0.00;0.00;0.00;0.00
67098;SPS30;54288;53.046;5.668;2024-02-04T11:05:02;0.00;0.00;0.00;0.00;0.00;0.00;0.00;0.00;0.00;0.00
67098;SPS30;54288;53.046;5.668;2024-02-04T11:07:31;0.00;0.00;0.00;0.00;0.00;0.00;0.00;0.00;0.00;0.00
67098;SPS30;54288;53.046;5.668;2024-02-04T11:10:01;0.00;0.00;0.00;0.00;0.00;0.00;0.00;0.00;0.00;0.00
67098;SPS30;54288;53.046;5.668;2024-02-04T11:12:31;0.00;0.00;0.00;0.00;0.00;0.00;0.00;0.00;0.00;0.00
67098;SPS30;54288;53.046;5.668;2024-02-04T11:15:01;0.00;0.00;0.00;0.00;0.00;0.00;0.00;0.00;0.00;0.00
67098;SPS30;54288;53.046;5.668;2024-02-04T11:26:02;0.00;0.00;0.00;0.00;0.00;0.00;0.00;0.00;0.00;0.00
67098;SPS30;54288;53.046;5.668;2024-02-04T11:28:30;0.00;0.00;0.00;0.00;0.00;0.00;0.00;0.00;0.00;0.00
67098;SPS30;54288;53.046;5.668;2024-02-04T11:30:57;0.00;0.00;0.00;0.00;0.00;0.00;0.00;0.00;0.00;0.00
67098;SPS30;54288;53.046;5.668;2024-02-04T11:33:22;0.00;0.00;0.00;0.00;0.00;0.00;0.00;0.00;0.00;0.00
67098;SPS30;54288;53.046;5.668;2024-02-04T11:35:58;0.00;0.00;0.00;0.00;0.00;0.00;0.00;0.00;0.00;0.00
67098;SPS30;54288;53.046;5.668;2024-02-04T11:38:38;0.00;0.00;0.00;0.00;0.00;0.00;0.00;0.00;0.00;0.00
67098;SPS30;54288;53.046;5.668;2024-02-04T11:41:04;0.00;0.00;0.00;0.00;0.00;0.00;0.00;0.00;0.00;0.00
67098;SPS30;54288;53.046;5.668;2024-02-04T11:43:34;0.00;0.00;0.00;0.00;0.00;0.00;0.00;0.00;0.00;0.00
67098;SPS30;54288;53.046;5.668;2024-02-04T11:46:05;0.00;0.00;0.00;0.00;0.00;0.00;0.00;0.00;0.00;0.00
67098;SPS30;54288;53.046;5.668;2024-02-04T11:48:34;0.00;0.00;0.00;0.00;0.00;0.00;0.00;0.00;0.00;0.00
67098;SPS30;54288;53.046;5.668;2024-02-04T11:51:02;0.00;0.00;0.00;0.00;0.00;0.00;0.00;0.00;0.00;0.00
67098;SPS30;54288;53.046;5.668;2024-02-04T11:53:30;0.00;0.00;0.00;0.00;0.00;0.00;0.00;0.00;0.00;0.00
67098;SPS30;54288;53.046;5.668;2024-02-04T11:55:58;0.00;0.00;0.00;0.00;0.00;0.00;0.00;0.00;0.00;0.00
67098;SPS30;54288;53.046;5.668;2024-02-04T11:58:26;0.00;0.00;0.00;0.00;0.00;0.00;0.00;0.00;0.00;0.00
67098;SPS30;54288;53.046;5.668;2024-02-04T12:00:53;0.00;0.00;0.00;0.00;0.00;0.00;0.00;0.00;0.00;0.00
67098;SPS30;54288;53.046;5.668;2024-02-04T12:03:29;0.00;0.00;0.00;0.00;0.00;0.00;0.00;0.00;0.00;0.00
67098;SPS30;54288;53.046;5.668;2024-02-04T12:05:55;0.00;0.00;0.00;0.00;0.00;0.00;0.00;0.00;0.00;0.00
67098;SPS30;54288;53.046;5.668;2024-02-04T12:08:22;0.00;0.00;0.00;0.00;0.00;0.00;0.00;0.00;0.00;0.00
67098;SPS30;54288;53.046;5.668;2024-02-04T12:10:49;0.00;0.00;0.00;0.00;0.00;0.00;0.00;0.00;0.00;0.00
67098;SPS30;54288;53.046;5.668;2024-02-04T12:13:16;0.00;0.00;0.00;0.00;0.00;0.00;0.00;0.00;0.00;0.00
67098;SPS30;54288;53.046;5.668;2024-02-04T12:15:44;0.00;0.00;0.00;0.00;0.00;0.00;0.00;0.00;0.00;0.00
67098;SPS30;54288;53.046;5.668;2024-02-04T12:18:11;0.00;0.00;0.00;0.00;0.00;0.00;0.00;0.00;0.00;0.00
67098;SPS30;54288;53.046;5.668;2024-02-04T12:20:39;0.00;0.00;0.00;0.00;0.00;0.00;0.00;0.00;0.00;0.00
67098;SPS30;54288;53.046;5.668;2024-02-04T12:23:05;0.00;0.00;0.00;0.00;0.00;0.00;0.00;0.00;0.00;0.00
67098;SPS30;54288;53.046;5.668;2024-02-04T12:25:32;0.00;0.00;0.00;0.00;0.00;0.00;0.00;0.00;0.00;0.00
67098;SPS30;54288;53.046;5.668;2024-02-04T12:28:00;0.00;0.00;0.00;0.00;0.00;0.00;0.00;0.00;0.00;0.00
67098;SPS30;54288;53.046;5.668;2024-02-04T12:30:28;0.00;0.00;0.00;0.00;0.00;0.00;0.00;0.00;0.00;0.00
67098;SPS30;54288;53.046;5.668;2024-02-04T12:32:57;0.00;0.00;0.00;0.00;0.00;0.00;0.00;0.00;0.00;0.00
67098;SPS30;54288;53.046;5.668;2024-02-04T12:35:27;0.00;0.00;0.00;0.00;0.00;0.00;0.00;0.00;0.00;0.00
67098;SPS30;54288;53.046;5.668;2024-02-04T12:37:54;0.00;0.00;0.00;0.00;0.00;0.00;0.00;0.00;0.00;0.00
67098;SPS30;54288;53.046;5.668;2024-02-04T12:40:24;0.00;0.00;0.00;0.00;0.00;0.00;0.00;0.00;0.00;0.00
67098;SPS30;54288;53.046;5.668;2024-02-04T12:42:57;0.00;0.00;0.00;0.00;0.00;0.00;0.00;0.00;0.00;0.00
67098;SPS30;54288;53.046;5.668;2024-02-04T12:45:26;0.00;0.00;0.00;0.00;0.00;0.00;0.00;0.00;0.00;0.00
67098;SPS30;54288;53.046;5.668;2024-02-04T12:47:57;0.00;0.00;0.00;0.00;0.00;0.00;0.00;0.00;0.00;0.00
67098;SPS30;54288;53.046;5.668;2024-02-04T12:50:24;0.00;0.00;0.00;0.00;0.00;0.00;0.00;0.00;0.00;0.00
67098;SPS30;54288;53.046;5.668;2024-02-04T12:55:30;0.00;0.00;0.00;0.00;0.00;0.00;0.00;0.00;0.00;0.00
67098;SPS30;54288;53.046;5.668;2024-02-04T12:58:04;0.00;0.00;0.00;0.00;0.00;0.00;0.00;0.00;0.00;0.00
67098;SPS30;54288;53.046;5.668;2024-02-04T13:00:32;0.00;0.00;0.00;0.00;0.00;0.00;0.00;0.00;0.00;0.00
67098;SPS30;54288;53.046;5.668;2024-02-04T13:02:58;0.00;0.00;0.00;0.00;0.00;0.00;0.00;0.00;0.00;0.00
67098;SPS30;54288;53.046;5.668;2024-02-04T13:05:24;0.00;0.00;0.00;0.00;0.00;0.00;0.00;0.00;0.00;0.00
67098;SPS30;54288;53.046;5.668;2024-02-04T13:07:52;0.00;0.00;0.00;0.00;0.00;0.00;0.00;0.00;0.00;0.00
67098;SPS30;54288;53.046;5.668;2024-02-04T13:10:22;0.00;0.00;0.00;0.00;0.00;0.00;0.00;0.00;0.00;0.00
67098;SPS30;54288;53.046;5.668;2024-02-04T13:13:07;0.00;0.00;0.00;0.00;0.00;0.00;0.00;0.00;0.00;0.00
67098;SPS30;54288;53.046;5.668;2024-02-04T13:15:40;0.00;0.00;0.00;0.00;0.00;0.00;0.00;0.00;0.00;0.00
67098;SPS30;54288;53.046;5.668;2024-02-04T13:18:08;0.00;0.00;0.00;0.00;0.00;0.00;0.00;0.00;0.00;0.00
67098;SPS30;54288;53.046;5.668;2024-02-04T13:20:37;0.00;0.00;0.00;0.00;0.00;0.00;0.00;0.00;0.00;0.00
67098;SPS30;54288;53.046;5.668;2024-02-04T13:23:03;0.00;0.00;0.00;0.00;0.00;0.00;0.00;0.00;0.00;0.00
67098;SPS30;54288;53.046;5.668;2024-02-04T13:25:32;0.00;0.00;0.00;0.00;0.00;0.00;0.00;0.00;0.00;0.00
67098;SPS30;54288;53.046;5.668;2024-02-04T13:27:58;0.00;0.00;0.00;0.00;0.00;0.00;0.00;0.00;0.00;0.00
67098;SPS30;54288;53.046;5.668;2024-02-04T13:30:24;0.00;0.00;0.00;0.00;0.00;0.00;0.00;0.00;0.00;0.00
67098;SPS30;54288;53.046;5.668;2024-02-04T13:32:50;0.00;0.00;0.00;0.00;0.00;0.00;0.00;0.00;0.00;0.00
67098;SPS30;54288;53.046;5.668;2024-02-04T13:35:16;0.00;0.00;0.00;0.00;0.00;0.00;0.00;0.00;0.00;0.00
67098;SPS30;54288;53.046;5.668;2024-02-04T13:37:43;0.00;0.00;0.00;0.00;0.00;0.00;0.00;0.00;0.00;0.00
67098;SPS30;54288;53.046;5.668;2024-02-04T13:40:15;0.00;0.00;0.00;0.00;0.00;0.00;0.00;0.00;0.00;0.00
67098;SPS30;54288;53.046;5.668;2024-02-04T13:42:41;0.00;0.00;0.00;0.00;0.00;0.00;0.00;0.00;0.00;0.00
67098;SPS30;54288;53.046;5.668;2024-02-04T13:45:07;0.00;0.00;0.00;0.00;0.00;0.00;0.00;0.00;0.00;0.00
67098;SPS30;54288;53.046;5.668;2024-02-04T13:47:34;0.00;0.00;0.00;0.00;0.00;0.00;0.00;0.00;0.00;0.00
67098;SPS30;54288;53.046;5.668;2024-02-04T13:50:00;0.00;0.00;0.00;0.00;0.00;0.00;0.00;0.00;0.00;0.00
67098;SPS30;54288;53.046;5.668;2024-02-04T13:52:27;0.00;0.00;0.00;0.00;0.00;0.00;0.00;0.00;0.00;0.00
67098;SPS30;54288;53.046;5.668;2024-02-04T13:54:53;0.00;0.00;0.00;0.00;0.00;0.00;0.00;0.00;0.00;0.00
67098;SPS30;54288;53.046;5.668;2024-02-04T13:57:19;0.00;0.00;0.00;0.00;0.00;0.00;0.00;0.00;0.00;0.00
67098;SPS30;54288;53.046;5.668;2024-02-04T13:59:45;0.00;0.00;0.00;0.00;0.00;0.00;0.00;0.00;0.00;0.00
67098;SPS30;54288;53.046;5.668;2024-02-04T14:02:11;0.00;0.00;0.00;0.00;0.00;0.00;0.00;0.00;0.00;0.00
67098;SPS30;54288;53.046;5.668;2024-02-04T14:04:36;0.00;0.00;0.00;0.00;0.00;0.00;0.00;0.00;0.00;0.00
67098;SPS30;54288;53.046;5.668;2024-02-04T14:07:02;0.00;0.00;0.00;0.00;0.00;0.00;0.00;0.00;0.00;0.00
67098;SPS30;54288;53.046;5.668;2024-02-04T14:09:28;0.00;0.00;0.00;0.00;0.00;0.00;0.00;0.00;0.00;0.00
67098;SPS30;54288;53.046;5.668;2024-02-04T14:11:54;0.00;0.00;0.00;0.00;0.00;0.00;0.00;0.00;0.00;0.00
67098;SPS30;54288;53.046;5.668;2024-02-04T14:14:20;0.00;0.00;0.00;0.00;0.00;0.00;0.00;0.00;0.00;0.00
67098;SPS30;54288;53.046;5.668;2024-02-04T14:16:47;0.00;0.00;0.00;0.00;0.00;0.00;0.00;0.00;0.00;0.00
67098;SPS30;54288;53.046;5.668;2024-02-04T14:19:13;0.00;0.00;0.00;0.00;0.00;0.00;0.00;0.00;0.00;0.00
67098;SPS30;54288;53.046;5.668;2024-02-04T14:21:39;0.00;0.00;0.00;0.00;0.00;0.00;0.00;0.00;0.00;0.00
67098;SPS30;54288;53.046;5.668;2024-02-04T14:24:06;0.00;0.00;0.00;0.00;0.00;0.00;0.00;0.00;0.00;0.00
67098;SPS30;54288;53.046;5.668;2024-02-04T14:26:32;0.00;0.00;0.00;0.00;0.00;0.00;0.00;0.00;0.00;0.00
67098;SPS30;54288;53.046;5.668;2024-02-04T14:28:58;0.00;0.00;0.00;0.00;0.00;0.00;0.00;0.00;0.00;0.00
67098;SPS30;54288;53.046;5.668;2024-02-04T14:31:24;0.00;0.00;0.00;0.00;0.00;0.00;0.00;0.00;0.00;0.00
67098;SPS30;54288;53.046;5.668;2024-02-04T14:33:49;0.00;0.00;0.00;0.00;0.00;0.00;0.00;0.00;0.00;0.00
67098;SPS30;54288;53.046;5.668;2024-02-04T14:36:16;0.00;0.00;0.00;0.00;0.00;0.00;0.00;0.00;0.00;0.00
67098;SPS30;54288;53.046;5.668;2024-02-04T14:38:42;0.00;0.00;0.00;0.00;0.00;0.00;0.00;0.00;0.00;0.00
67098;SPS30;54288;53.046;5.668;2024-02-04T14:41:08;0.00;0.00;0.00;0.00;0.00;0.00;0.00;0.00;0.00;0.00
67098;SPS30;54288;53.046;5.668;2024-02-04T14:43:35;0.00;0.00;0.00;0.00;0.00;0.00;0.00;0.00;0.00;0.00
67098;SPS30;54288;53.046;5.668;2024-02-04T14:46:01;0.00;0.00;0.00;0.00;0.00;0.00;0.00;0.00;0.00;0.00
67098;SPS30;54288;53.046;5.668;2024-02-04T14:48:26;0.00;0.00;0.00;0.00;0.00;0.00;0.00;0.00;0.00;0.00
67098;SPS30;54288;53.046;5.668;2024-02-04T14:50:52;0.00;0.00;0.00;0.00;0.00;0.00;0.00;0.00;0.00;0.00
67098;SPS30;54288;53.046;5.668;2024-02-04T14:53:19;0.00;0.00;0.00;0.00;0.00;0.00;0.00;0.00;0.00;0.00
67098;SPS30;54288;53.046;5.668;2024-02-04T14:55:45;0.00;0.00;0.00;0.00;0.00;0.00;0.00;0.00;0.00;0.00
67098;SPS30;54288;53.046;5.668;2024-02-04T14:58:11;0.00;0.00;0.00;0.00;0.00;0.00;0.00;0.00;0.00;0.00
67098;SPS30;54288;53.046;5.668;2024-02-04T15:00:36;0.00;0.00;0.00;0.00;0.00;0.00;0.00;0.00;0.00;0.00
67098;SPS30;54288;53.046;5.668;2024-02-04T15:03:02;0.00;0.00;0.00;0.00;0.00;0.00;0.00;0.00;0.00;0.00
67098;SPS30;54288;53.046;5.668;2024-02-04T15:05:28;0.00;0.00;0.00;0.00;0.00;0.00;0.00;0.00;0.00;0.00
67098;SPS30;54288;53.046;5.668;2024-02-04T15:07:54;0.00;0.00;0.00;0.00;0.00;0.00;0.00;0.00;0.00;0.00
67098;SPS30;54288;53.046;5.668;2024-02-04T15:10:20;0.00;0.00;0.00;0.00;0.00;0.00;0.00;0.00;0.00;0.00
67098;SPS30;54288;53.046;5.668;2024-02-04T15:12:45;0.00;0.00;0.00;0.00;0.00;0.00;0.00;0.00;0.00;0.00
67098;SPS30;54288;53.046;5.668;2024-02-04T15:15:12;0.00;0.00;0.00;0.00;0.00;0.00;0.00;0.00;0.00;0.00
67098;SPS30;54288;53.046;5.668;2024-02-04T15:17:38;0.00;0.00;0.00;0.00;0.00;0.00;0.00;0.00;0.00;0.00
67098;SPS30;54288;53.046;5.668;2024-02-04T15:20:04;0.00;0.00;0.00;0.00;0.00;0.00;0.00;0.00;0.00;0.00
67098;SPS30;54288;53.046;5.668;2024-02-04T15:22:30;0.00;0.00;0.00;0.00;0.00;0.00;0.00;0.00;0.00;0.00
67098;SPS30;54288;53.046;5.668;2024-02-04T15:24:56;0.00;0.00;0.00;0.00;0.00;0.00;0.00;0.00;0.00;0.00
67098;SPS30;54288;53.046;5.668;2024-02-04T15:27:26;0.00;0.00;0.00;0.00;0.00;0.00;0.00;0.00;0.00;0.00
67098;SPS30;54288;53.046;5.668;2024-02-04T15:29:53;0.00;0.00;0.00;0.00;0.00;0.00;0.00;0.00;0.00;0.00
67098;SPS30;54288;53.046;5.668;2024-02-04T15:32:21;0.00;0.00;0.00;0.00;0.00;0.00;0.00;0.00;0.00;0.00
67098;SPS30;54288;53.046;5.668;2024-02-04T15:34:47;0.00;0.00;0.00;0.00;0.00;0.00;0.00;0.00;0.00;0.00
67098;SPS30;54288;53.046;5.668;2024-02-04T15:37:13;0.00;0.00;0.00;0.00;0.00;0.00;0.00;0.00;0.00;0.00
67098;SPS30;54288;53.046;5.668;2024-02-04T15:39:39;0.00;0.00;0.00;0.00;0.00;0.00;0.00;0.00;0.00;0.00
67098;SPS30;54288;53.046;5.668;2024-02-04T15:42:05;0.00;0.00;0.00;0.00;0.00;0.00;0.00;0.00;0.00;0.00
67098;SPS30;54288;53.046;5.668;2024-02-04T15:44:31;0.00;0.00;0.00;0.00;0.00;0.00;0.00;0.00;0.00;0.00
67098;SPS30;54288;53.046;5.668;2024-02-04T15:47:10;0.00;0.00;0.00;0.00;0.00;0.00;0.00;0.00;0.00;0.00
67098;SPS30;54288;53.046;5.668;2024-02-04T15:49:37;0.00;0.00;0.00;0.00;0.00;0.00;0.00;0.00;0.00;0.00
67098;SPS30;54288;53.046;5.668;2024-02-04T15:52:03;0.00;0.00;0.00;0.00;0.00;0.00;0.00;0.00;0.00;0.00
67098;SPS30;54288;53.046;5.668;2024-02-04T15:54:30;0.00;0.00;0.00;0.00;0.00;0.00;0.00;0.00;0.00;0.00
67098;SPS30;54288;53.046;5.668;2024-02-04T15:57:06;0.00;0.00;0.00;0.00;0.00;0.00;0.00;0.00;0.00;0.00
67098;SPS30;54288;53.046;5.668;2024-02-04T15:59:39;0.00;0.00;0.00;0.00;0.00;0.00;0.00;0.00;0.00;0.00
67098;SPS30;54288;53.046;5.668;2024-02-04T16:02:10;0.00;0.00;0.00;0.00;0.00;0.00;0.00;0.00;0.00;0.00
67098;SPS30;54288;53.046;5.668;2024-02-04T16:04:37;0.00;0.00;0.00;0.00;0.00;0.00;0.00;0.00;0.00;0.00
67098;SPS30;54288;53.046;5.668;2024-02-04T16:07:02;0.00;0.00;0.00;0.00;0.00;0.00;0.00;0.00;0.00;0.00
67098;SPS30;54288;53.046;5.668;2024-02-04T16:09:28;0.00;0.00;0.00;0.00;0.00;0.00;0.00;0.00;0.00;0.00
67098;SPS30;54288;53.046;5.668;2024-02-04T16:14:28;0.00;0.00;0.00;0.00;0.00;0.00;0.00;0.00;0.00;0.00
67098;SPS30;54288;53.046;5.668;2024-02-04T16:17:07;0.00;0.00;0.00;0.00;0.00;0.00;0.00;0.00;0.00;0.00
67098;SPS30;54288;53.046;5.668;2024-02-04T16:19:38;0.00;0.00;0.00;0.00;0.00;0.00;0.00;0.00;0.00;0.00
67098;SPS30;54288;53.046;5.668;2024-02-04T16:22:05;0.00;0.00;0.00;0.00;0.00;0.00;0.00;0.00;0.00;0.00
67098;SPS30;54288;53.046;5.668;2024-02-04T16:24:30;0.00;0.00;0.00;0.00;0.00;0.00;0.00;0.00;0.00;0.00
67098;SPS30;54288;53.046;5.668;2024-02-04T16:26:56;0.00;0.00;0.00;0.00;0.00;0.00;0.00;0.00;0.00;0.00
67098;SPS30;54288;53.046;5.668;2024-02-04T16:29:22;0.00;0.00;0.00;0.00;0.00;0.00;0.00;0.00;0.00;0.00
67098;SPS30;54288;53.046;5.668;2024-02-04T16:31:53;0.00;0.00;0.00;0.00;0.00;0.00;0.00;0.00;0.00;0.00
67098;SPS30;54288;53.046;5.668;2024-02-04T16:34:19;0.00;0.00;0.00;0.00;0.00;0.00;0.00;0.00;0.00;0.00
67098;SPS30;54288;53.046;5.668;2024-02-04T16:36:48;0.00;0.00;0.00;0.00;0.00;0.00;0.00;0.00;0.00;0.00
67098;SPS30;54288;53.046;5.668;2024-02-04T16:39:15;0.00;0.00;0.00;0.00;0.00;0.00;0.00;0.00;0.00;0.00
67098;SPS30;54288;53.046;5.668;2024-02-04T16:41:41;0.00;0.00;0.00;0.00;0.00;0.00;0.00;0.00;0.00;0.00
67098;SPS30;54288;53.046;5.668;2024-02-04T16:44:08;0.00;0.00;0.00;0.00;0.00;0.00;0.00;0.00;0.00;0.00
67098;SPS30;54288;53.046;5.668;2024-02-04T16:46:38;0.00;0.00;0.00;0.00;0.00;0.00;0.00;0.00;0.00;0.00
67098;SPS30;54288;53.046;5.668;2024-02-04T16:49:04;0.00;0.00;0.00;0.00;0.00;0.00;0.00;0.00;0.00;0.00
67098;SPS30;54288;53.046;5.668;2024-02-04T16:51:36;0.00;0.00;0.00;0.00;0.00;0.00;0.00;0.00;0.00;0.00
67098;SPS30;54288;53.046;5.668;2024-02-04T16:54:03;0.00;0.00;0.00;0.00;0.00;0.00;0.00;0.00;0.00;0.00
67098;SPS30;54288;53.046;5.668;2024-02-04T16:56:29;0.00;0.00;0.00;0.00;0.00;0.00;0.00;0.00;0.00;0.00
67098;SPS30;54288;53.046;5.668;2024-02-04T16:58:54;0.00;0.00;0.00;0.00;0.00;0.00;0.00;0.00;0.00;0.00
67098;SPS30;54288;53.046;5.668;2024-02-04T17:01:20;0.00;0.00;0.00;0.00;0.00;0.00;0.00;0.00;0.00;0.00
67098;SPS30;54288;53.046;5.668;2024-02-04T17:03:46;0.00;0.00;0.00;0.00;0.00;0.00;0.00;0.00;0.00;0.00
67098;SPS30;54288;53.046;5.668;2024-02-04T17:06:12;0.00;0.00;0.00;0.00;0.00;0.00;0.00;0.00;0.00;0.00
67098;SPS30;54288;53.046;5.668;2024-02-04T17:08:38;0.00;0.00;0.00;0.00;0.00;0.00;0.00;0.00;0.00;0.00
67098;SPS30;54288;53.046;5.668;2024-02-04T17:11:05;0.00;0.00;0.00;0.00;0.00;0.00;0.00;0.00;0.00;0.00
67098;SPS30;54288;53.046;5.668;2024-02-04T17:13:31;0.00;0.00;0.00;0.00;0.00;0.00;0.00;0.00;0.00;0.00
67098;SPS30;54288;53.046;5.668;2024-02-04T17:15:57;0.00;0.00;0.00;0.00;0.00;0.00;0.00;0.00;0.00;0.00
67098;SPS30;54288;53.046;5.668;2024-02-04T17:18:38;0.00;0.00;0.00;0.00;0.00;0.00;0.00;0.00;0.00;0.00
67098;SPS30;54288;53.046;5.668;2024-02-04T17:21:31;0.00;0.00;0.00;0.00;0.00;0.00;0.00;0.00;0.00;0.00
67098;SPS30;54288;53.046;5.668;2024-02-04T17:24:08;0.00;0.00;0.00;0.00;0.00;0.00;0.00;0.00;0.00;0.00
67098;SPS30;54288;53.046;5.668;2024-02-04T17:26:40;0.00;0.00;0.00;0.00;0.00;0.00;0.00;0.00;0.00;0.00
67098;SPS30;54288;53.046;5.668;2024-02-04T17:29:06;0.00;0.00;0.00;0.00;0.00;0.00;0.00;0.00;0.00;0.00
67098;SPS30;54288;53.046;5.668;2024-02-04T17:31:33;0.00;0.00;0.00;0.00;0.00;0.00;0.00;0.00;0.00;0.00
67098;SPS30;54288;53.046;5.668;2024-02-04T17:33:59;0.00;0.00;0.00;0.00;0.00;0.00;0.00;0.00;0.00;0.00
67098;SPS30;54288;53.046;5.668;2024-02-04T17:36:25;0.00;0.00;0.00;0.00;0.00;0.00;0.00;0.00;0.00;0.00